Oasis of the Seas — C6XS7 — position and weather

sailwx.info

Track history (hours):
 
Tides and Currents Weather Stations Pressure Air Temp Water Temp Dewpoint Dewpoint Depression Visibility Wind Speed Wind Dir Waves Ship Positions

Oasis of the Seas

Last reported at 2015-Apr-18 09:29 UTC. Time now 2015-Apr-19 17:30 UTC.
Position N 26°06' W 080°05'.

Length 360 m; draft 9.4 m.

Type: Passenger vessel. MMSI: 311020600.

Date/timePositionNaut miles runAvg speedWind from/ knotsBaromVisibWave heightAir tempDewpointWater temp
2015-Apr-18 09:29N 26°06' W 080°05'12814.3
2015-Apr-18 00:31N 24°15' W 081°16'38815.4
2015-Apr-16 23:16N 20°31' W 086°59'2 2.1
2015-Apr-16 22:30N 20°29' W 086°59'0 0.0
2015-Apr-16 21:30N 20°29' W 086°59'0 0.0
2015-Apr-16 20:24N 20°29' W 086°59'0 0.0
2015-Apr-16 19:30N 20°29' W 086°59'0 0.0
2015-Apr-16 18:30N 20°29' W 086°59'0 0.0
2015-Apr-16 17:33N 20°29' W 086°59'0 0.0
2015-Apr-16 16:33N 20°29' W 086°59'0 0.0
2015-Apr-16 15:33N 20°29' W 086°59'0 0.0
2015-Apr-16 14:33N 20°29' W 086°59'0 0.0
2015-Apr-16 13:33N 20°29' W 086°59'0 0.0
2015-Apr-16 12:33N 20°29' W 086°59'0 0.3
2015-Apr-16 11:33N 20°29' W 086°59'  
2015-Apr-12 06:00N 23°42' W 079°12'14417.0 120 / 221017.0 5.4 0.524.022.628.0
2015-Apr-11 21:33N 25°59' W 080°01'9 8.8
2015-Apr-11 20:33N 26°05' W 080°07'0 0.0
2015-Apr-11 19:31N 26°05' W 080°07'0 0.0
2015-Apr-11 18:31N 26°05' W 080°07'0 0.0
2015-Apr-11 17:07N 26°05' W 080°07'0 0.0
2015-Apr-11 16:22N 26°05' W 080°07'0 0.0
2015-Apr-11 15:25N 26°05' W 080°07'0 0.0
2015-Apr-11 14:22N 26°05' W 080°07'0 0.0
2015-Apr-11 13:28N 26°05' W 080°07'0 0.0
2015-Apr-11 12:28N 26°05' W 080°07'0 0.0
2015-Apr-11 11:28N 26°05' W 080°07'0 0.0
2015-Apr-11 10:28N 26°05' W 080°07'2 2.0
2015-Apr-11 09:33N 26°06' W 080°05'1515.0
2015-Apr-11 08:33N 26°07' W 079°49'1212.4
2015-Apr-11 07:33N 26°08' W 079°35'3120.0
2015-Apr-11 06:00N 26°06' W 079°00'40717.0 120 / 151020.010.8 0.524.022.628.0
2015-Apr-10 06:00N 23°18' W 072°12'22518.8 100 / 171020.0 5.4 1.525.023.628.0
2015-Apr-09 18:00N 21°24' W 068°42'35718.3 080 / 191019.010.8 2.025.8 28.8
2015-Apr-08 22:26N 18°10' W 063°23'1718.6
2015-Apr-08 21:32N 18°01' W 063°09'5 0.5
2015-Apr-08 11:33N 18°00' W 063°03'9 8.0
2015-Apr-08 10:28N 18°00' W 063°12'8 9.0
2015-Apr-08 09:33N 17°60' W 063°21'  
Track history (hours):
 
Tides and Currents Weather Stations Pressure Air Temp Water Temp Dewpoint Dewpoint Depression Visibility Wind Speed Wind Dir Waves Ship Positions

Oasis of the Seas

Last reported at 2015-Apr-18 09:29 UTC. Time now 2015-Apr-19 17:30 UTC.
Position N 26°06' W 080°05'.

Length 360 m; draft 9.4 m.

Type: Passenger vessel. MMSI: 311020600.

Date/timePositionNaut miles runAvg speedWind from/ knotsBaromVisibWave heightAir tempDewpointWater temp
2015-Apr-18 09:29N 26°06' W 080°05'12814.3
2015-Apr-18 00:31N 24°15' W 081°16'38815.4
2015-Apr-16 23:16N 20°31' W 086°59'2 2.1
2015-Apr-16 22:30N 20°29' W 086°59'0 0.0
2015-Apr-16 21:30N 20°29' W 086°59'0 0.0
2015-Apr-16 20:24N 20°29' W 086°59'0 0.0
2015-Apr-16 19:30N 20°29' W 086°59'0 0.0
2015-Apr-16 18:30N 20°29' W 086°59'0 0.0
2015-Apr-16 17:33N 20°29' W 086°59'0 0.0
2015-Apr-16 16:33N 20°29' W 086°59'0 0.0
2015-Apr-16 15:33N 20°29' W 086°59'0 0.0
2015-Apr-16 14:33N 20°29' W 086°59'0 0.0
2015-Apr-16 13:33N 20°29' W 086°59'0 0.0
2015-Apr-16 12:33N 20°29' W 086°59'0 0.3
2015-Apr-16 11:33N 20°29' W 086°59'  
2015-Apr-12 06:00N 23°42' W 079°12'14417.0 120 / 221017.0 5.4 0.524.022.628.0
2015-Apr-11 21:33N 25°59' W 080°01'9 8.8
2015-Apr-11 20:33N 26°05' W 080°07'0 0.0
2015-Apr-11 19:31N 26°05' W 080°07'0 0.0
2015-Apr-11 18:31N 26°05' W 080°07'0 0.0
2015-Apr-11 17:07N 26°05' W 080°07'0 0.0
2015-Apr-11 16:22N 26°05' W 080°07'0 0.0
2015-Apr-11 15:25N 26°05' W 080°07'0 0.0
2015-Apr-11 14:22N 26°05' W 080°07'0 0.0
2015-Apr-11 13:28N 26°05' W 080°07'0 0.0
2015-Apr-11 12:28N 26°05' W 080°07'0 0.0
2015-Apr-11 11:28N 26°05' W 080°07'0 0.0
2015-Apr-11 10:28N 26°05' W 080°07'2 2.0
2015-Apr-11 09:33N 26°06' W 080°05'1515.0
2015-Apr-11 08:33N 26°07' W 079°49'1212.4
2015-Apr-11 07:33N 26°08' W 079°35'3120.0
2015-Apr-11 06:00N 26°06' W 079°00'40717.0 120 / 151020.010.8 0.524.022.628.0
2015-Apr-10 06:00N 23°18' W 072°12'22518.8 100 / 171020.0 5.4 1.525.023.628.0
2015-Apr-09 18:00N 21°24' W 068°42'35718.3 080 / 191019.010.8 2.025.8 28.8
2015-Apr-08 22:26N 18°10' W 063°23'1718.6
2015-Apr-08 21:32N 18°01' W 063°09'5 0.5
2015-Apr-08 11:33N 18°00' W 063°03'9 8.0
2015-Apr-08 10:28N 18°00' W 063°12'8 9.0
2015-Apr-08 09:33N 17°60' W 063°21'  

Dump ship's entire track history